createdAt,value
2023-04-06T00:00:17.116Z,44.31
2023-04-06T00:02:43.869Z,44.43
2023-04-06T00:05:10.446Z,44.83
2023-04-06T00:07:37.004Z,44.51
2023-04-06T00:10:03.636Z,44.44
2023-04-06T00:12:30.285Z,44.10
2023-04-06T00:14:56.876Z,46.24
2023-04-06T00:17:23.471Z,46.22
2023-04-06T00:19:50.054Z,45.94
2023-04-06T00:22:16.666Z,46.52
2023-04-06T00:24:43.227Z,45.90
2023-04-06T00:27:09.836Z,46.05
2023-04-06T00:29:36.395Z,45.51
2023-04-06T00:32:03.044Z,46.45
2023-04-06T00:34:29.645Z,46.21
2023-04-06T00:36:56.214Z,46.14
2023-04-06T00:39:22.767Z,45.86
2023-04-06T00:41:49.341Z,46.29
2023-04-06T00:44:15.955Z,46.16
2023-04-06T00:46:42.525Z,46.24
2023-04-06T00:49:09.356Z,46.42
2023-04-06T00:51:36.043Z,46.15
2023-04-06T00:54:02.638Z,46.13
2023-04-06T00:56:29.301Z,46.83
2023-04-06T00:58:55.883Z,47.02
2023-04-06T01:01:22.548Z,46.49
2023-04-06T01:03:49.108Z,46.15
2023-04-06T01:06:15.670Z,46.25
2023-04-06T01:08:42.245Z,46.03
2023-04-06T01:11:08.790Z,45.82
2023-04-06T01:13:35.712Z,45.84
2023-04-06T01:16:02.338Z,46.49
2023-04-06T01:18:28.908Z,45.83
2023-04-06T01:20:55.513Z,46.37
2023-04-06T01:23:22.066Z,47.34
2023-04-06T01:25:48.660Z,46.86
2023-04-06T01:28:15.234Z,46.92
2023-04-06T01:30:41.788Z,47.16
2023-04-06T01:33:08.443Z,46.79
2023-04-06T01:35:35.101Z,47.02
2023-04-06T01:38:01.670Z,46.56
2023-04-06T01:40:28.243Z,46.48
2023-04-06T01:42:54.782Z,46.85
2023-04-06T01:45:21.333Z,46.27
2023-04-06T01:47:47.948Z,46.52
2023-04-06T01:50:14.535Z,47.82
2023-04-06T01:52:41.083Z,47.72
2023-04-06T01:55:07.658Z,47.74
2023-04-06T01:57:34.240Z,47.72
2023-04-06T02:00:00.812Z,47.27
2023-04-06T02:02:27.765Z,47.09
2023-04-06T02:04:54.437Z,47.00
2023-04-06T02:07:20.977Z,46.57
2023-04-06T02:09:47.547Z,47.11
2023-04-06T02:12:14.087Z,47.24
2023-04-06T02:14:40.805Z,47.43
2023-04-06T02:17:07.532Z,47.02
2023-04-06T02:19:34.090Z,47.59
2023-04-06T02:22:00.639Z,47.17
2023-04-06T02:24:27.194Z,46.84
2023-04-06T02:26:53.761Z,47.26
2023-04-06T02:29:20.329Z,47.19
2023-04-06T02:31:46.989Z,47.16
2023-04-06T02:34:13.656Z,47.31
2023-04-06T02:36:40.198Z,46.98
2023-04-06T02:39:06.954Z,47.37
2023-04-06T02:41:33.641Z,47.38
2023-04-06T02:44:00.207Z,47.89
2023-04-06T02:46:26.785Z,47.87
2023-04-06T02:48:55.447Z,48.00
2023-04-06T02:51:22.013Z,48.36
2023-04-06T02:53:48.557Z,47.68
2023-04-06T02:56:15.170Z,48.20
2023-04-06T02:58:41.740Z,48.99
2023-04-06T03:01:08.377Z,48.52
2023-04-06T03:03:35.101Z,48.01
2023-04-06T03:06:01.814Z,47.67
2023-04-06T03:08:28.391Z,48.75
2023-04-06T03:10:55.115Z,49.31
2023-04-06T03:13:21.702Z,49.91
2023-04-06T03:15:48.290Z,49.16
2023-04-06T03:18:15.007Z,48.99
2023-04-06T03:20:41.648Z,48.70
2023-04-06T03:23:08.196Z,48.57
2023-04-06T03:25:34.834Z,48.28
2023-04-06T03:28:01.370Z,48.69
2023-04-06T03:30:27.917Z,48.45
2023-04-06T03:32:54.560Z,48.41
2023-04-06T03:35:21.166Z,48.78
2023-04-06T03:37:47.833Z,48.15
2023-04-06T03:40:14.471Z,48.60
2023-04-06T03:42:41.029Z,48.92
2023-04-06T03:45:07.615Z,48.91
2023-04-06T03:47:34.174Z,48.27
2023-04-06T03:50:00.752Z,48.29
2023-04-06T03:52:27.349Z,48.27
2023-04-06T03:54:53.936Z,49.11
2023-04-06T03:57:20.474Z,48.64
2023-04-06T03:59:47.120Z,49.00
2023-04-06T04:02:13.848Z,49.30
2023-04-06T04:04:40.500Z,48.79
2023-04-06T04:07:07.094Z,48.87
2023-04-06T04:09:33.637Z,48.78
2023-04-06T04:12:00.242Z,48.34
2023-04-06T04:14:27.022Z,48.89
2023-04-06T04:16:53.720Z,48.83
2023-04-06T04:19:20.527Z,49.27
2023-04-06T04:21:47.078Z,49.20
2023-04-06T04:24:13.720Z,49.86
2023-04-06T04:26:40.318Z,50.20
2023-04-06T04:29:07.095Z,50.39
2023-04-06T04:31:33.949Z,49.59
2023-04-06T04:34:00.533Z,49.98
2023-04-06T04:36:27.090Z,49.87
2023-04-06T04:38:53.642Z,49.60
2023-04-06T04:41:20.238Z,49.75
2023-04-06T04:43:46.883Z,49.54
2023-04-06T04:46:13.500Z,49.00
2023-04-06T04:48:40.809Z,49.28
2023-04-06T04:51:07.456Z,49.81
2023-04-06T04:53:34.024Z,49.86
2023-04-06T04:56:00.599Z,49.32
2023-04-06T04:58:27.144Z,49.70
2023-04-06T05:00:54.044Z,49.31
2023-04-06T05:03:20.710Z,49.02
2023-04-06T05:05:47.397Z,49.29
2023-04-06T05:08:13.970Z,49.10
2023-04-06T05:10:40.565Z,49.32
2023-04-06T05:13:07.160Z,49.11
2023-04-06T05:15:33.779Z,49.00
2023-04-06T05:18:00.458Z,49.04
2023-04-06T05:20:27.043Z,49.28
2023-04-06T05:22:53.602Z,49.29
2023-04-06T05:25:20.296Z,49.10
2023-04-06T05:27:47.024Z,49.42
2023-04-06T05:30:14.057Z,49.13
2023-04-06T05:32:40.690Z,48.69
2023-04-06T05:35:07.318Z,48.73
2023-04-06T05:37:34.162Z,49.30
2023-04-06T05:40:00.865Z,48.28
2023-04-06T05:42:27.453Z,47.76
2023-04-06T05:44:54.018Z,47.14
2023-04-06T05:47:20.596Z,46.00
2023-04-06T05:49:47.142Z,46.20
2023-04-06T05:52:13.766Z,47.01
2023-04-06T05:54:40.354Z,46.59
2023-04-06T05:57:06.905Z,45.95
2023-04-06T05:59:33.556Z,45.74
2023-04-06T06:02:00.280Z,46.17
2023-04-06T06:04:26.928Z,46.46
2023-04-06T06:06:53.590Z,46.22
2023-04-06T06:09:20.154Z,44.55
2023-04-06T06:11:47.788Z,44.85
2023-04-06T06:14:14.372Z,44.26
2023-04-06T06:16:41.304Z,44.48
2023-04-06T06:19:08.058Z,43.93
2023-04-06T06:21:34.813Z,43.80
2023-04-06T06:24:01.418Z,43.35
2023-04-06T06:26:27.959Z,43.01
2023-04-06T06:28:54.531Z,42.10
2023-04-06T06:31:21.128Z,41.97
2023-04-06T06:33:47.765Z,41.75
2023-04-06T06:36:14.316Z,41.81
2023-04-06T06:38:40.855Z,41.75
2023-04-06T06:41:07.412Z,41.26
2023-04-06T06:43:33.974Z,40.76
2023-04-06T06:46:00.612Z,40.61
2023-04-06T06:48:27.247Z,40.68
2023-04-06T06:50:53.840Z,40.83
2023-04-06T06:53:20.530Z,39.92
2023-04-06T06:55:47.113Z,40.24
2023-04-06T06:58:13.741Z,39.27
2023-04-06T07:00:40.310Z,39.53
2023-04-06T07:03:06.959Z,39.87
2023-04-06T07:05:33.544Z,39.12
2023-04-06T07:08:00.106Z,38.98
2023-04-06T07:10:26.856Z,39.41
2023-04-06T07:12:53.489Z,38.78
2023-04-06T07:15:20.068Z,38.22
2023-04-06T07:17:46.759Z,37.62
2023-04-06T07:20:13.397Z,37.40
2023-04-06T07:22:39.956Z,37.34
2023-04-06T07:25:06.622Z,37.46
2023-04-06T07:27:33.204Z,36.27
2023-04-06T07:29:59.763Z,35.89
2023-04-06T07:32:26.556Z,36.94
2023-04-06T07:34:53.118Z,36.67
2023-04-06T07:37:19.873Z,37.29
2023-04-06T07:39:46.421Z,35.43
2023-04-06T07:42:13.017Z,35.82
2023-04-06T07:44:39.601Z,35.01
2023-04-06T07:47:06.171Z,34.66
2023-04-06T07:49:32.732Z,34.75
2023-04-06T07:51:59.388Z,33.84
2023-04-06T07:54:26.037Z,35.09
2023-04-06T07:56:52.853Z,33.64
2023-04-06T07:59:19.484Z,32.94
2023-04-06T08:01:46.097Z,33.82
2023-04-06T08:04:13.830Z,32.81
2023-04-06T08:06:42.014Z,32.88
2023-04-06T08:09:08.647Z,32.75
2023-04-06T08:11:35.230Z,31.78
2023-04-06T08:14:02.103Z,31.18
2023-04-06T08:16:28.803Z,32.95
2023-04-06T08:18:55.443Z,32.17
2023-04-06T08:21:22.127Z,31.66
2023-04-06T08:23:49.141Z,31.02
2023-04-06T08:26:16.810Z,31.29
2023-04-06T08:28:45.698Z,30.46
2023-04-06T08:31:14.299Z,30.65
2023-04-06T08:33:41.260Z,30.14
2023-04-06T08:36:08.462Z,30.85
2023-04-06T08:38:35.616Z,30.76
2023-04-06T08:41:02.700Z,30.25
2023-04-06T08:43:30.347Z,29.14
2023-04-06T08:45:58.203Z,28.95
2023-04-06T08:48:24.926Z,29.87
2023-04-06T08:50:52.387Z,28.59
2023-04-06T08:53:20.317Z,29.90
2023-04-06T08:55:48.844Z,29.42
2023-04-06T08:58:24.306Z,29.64
2023-04-06T09:00:58.460Z,29.13
2023-04-06T09:03:25.250Z,28.55
2023-04-06T09:05:52.354Z,29.46
2023-04-06T09:08:19.413Z,28.83
2023-04-06T09:10:46.400Z,28.22
2023-04-06T09:13:13.724Z,28.49
2023-04-06T09:15:40.938Z,29.20
2023-04-06T09:18:08.534Z,28.06
2023-04-06T09:20:35.639Z,27.51
2023-04-06T09:23:02.851Z,27.71
2023-04-06T09:25:29.967Z,28.02
2023-04-06T09:27:58.732Z,27.64
2023-04-06T09:30:25.945Z,28.09
2023-04-06T09:32:53.138Z,27.28
2023-04-06T09:35:20.064Z,27.07
2023-04-06T09:37:47.113Z,27.82
2023-04-06T09:40:14.541Z,26.25
2023-04-06T09:42:41.245Z,27.17
2023-04-06T09:45:08.341Z,27.47
2023-04-06T09:47:35.358Z,25.97
2023-04-06T09:50:02.561Z,26.81
2023-04-06T09:52:29.358Z,27.69
2023-04-06T09:54:56.815Z,26.68
2023-04-06T09:57:23.857Z,26.67
2023-04-06T09:59:51.469Z,27.01
2023-04-06T10:02:19.318Z,26.29
2023-04-06T10:04:46.590Z,25.63
2023-04-06T10:07:13.996Z,25.68
2023-04-06T10:09:41.285Z,26.27
2023-04-06T10:12:08.316Z,25.43
2023-04-06T10:14:35.444Z,24.85
2023-04-06T10:17:03.331Z,25.04
2023-04-06T10:19:30.205Z,25.43
2023-04-06T10:21:57.605Z,24.29
2023-04-06T10:24:24.593Z,23.99
2023-04-06T10:26:51.856Z,25.64
2023-04-06T10:29:18.923Z,25.50
2023-04-06T10:31:46.158Z,25.34
2023-04-06T10:34:13.395Z,24.42
2023-04-06T10:36:40.525Z,25.06
2023-04-06T10:39:07.510Z,24.63
2023-04-06T10:41:34.490Z,24.61
2023-04-06T10:44:02.832Z,23.93
2023-04-06T10:46:29.985Z,24.01
2023-04-06T10:48:56.854Z,22.84
2023-04-06T10:51:23.747Z,23.28
2023-04-06T10:53:50.930Z,23.83
2023-04-06T10:56:17.844Z,23.16
2023-04-06T10:58:45.164Z,23.31
2023-04-06T11:01:12.510Z,22.39
2023-04-06T11:03:39.608Z,23.67
2023-04-06T11:06:06.421Z,24.08
2023-04-06T11:08:33.493Z,23.19
2023-04-06T11:11:00.467Z,23.02
2023-04-06T11:13:28.026Z,24.14
2023-04-06T11:15:55.004Z,22.72
2023-04-06T11:18:21.825Z,22.19
2023-04-06T11:20:49.000Z,22.29
2023-04-06T11:23:16.198Z,22.65
2023-04-06T11:25:43.424Z,23.44
2023-04-06T11:28:10.356Z,21.90
2023-04-06T11:30:38.196Z,22.71
2023-04-06T11:33:05.704Z,22.59
2023-04-06T11:35:32.478Z,23.62
2023-04-06T11:38:00.549Z,22.22
2023-04-06T11:40:27.918Z,23.18
2023-04-06T11:42:55.001Z,21.91
2023-04-06T11:45:22.236Z,21.82
2023-04-06T11:47:49.253Z,22.23
2023-04-06T11:50:16.420Z,22.21
2023-04-06T11:52:43.580Z,21.86
2023-04-06T11:55:10.815Z,22.77
2023-04-06T11:57:37.845Z,22.55
2023-04-06T12:00:04.466Z,21.18
2023-04-06T12:02:33.709Z,21.41
2023-04-06T12:05:00.934Z,21.62
2023-04-06T12:07:28.278Z,22.10
2023-04-06T12:09:55.341Z,21.78
2023-04-06T12:12:22.775Z,22.28
2023-04-06T12:14:49.932Z,21.96
2023-04-06T12:17:17.245Z,21.26
2023-04-06T12:19:44.196Z,21.99
2023-04-06T12:22:11.615Z,21.21
2023-04-06T12:24:38.777Z,22.02
2023-04-06T12:27:09.991Z,22.01
2023-04-06T12:29:38.030Z,21.02
2023-04-06T12:32:05.314Z,21.83
2023-04-06T12:34:33.310Z,21.24
2023-04-06T12:37:00.847Z,21.29
2023-04-06T12:39:27.905Z,20.63
2023-04-06T12:41:55.309Z,21.61
2023-04-06T12:44:23.681Z,21.07
2023-04-06T12:46:52.938Z,20.73
2023-04-06T12:49:19.935Z,21.32
2023-04-06T12:51:47.285Z,20.41
2023-04-06T12:54:14.317Z,20.84
2023-04-06T12:56:41.593Z,21.32
2023-04-06T12:59:08.699Z,21.16
2023-04-06T13:01:37.079Z,21.46
2023-04-06T13:04:04.194Z,21.56
2023-04-06T13:06:31.105Z,21.37
2023-04-06T13:08:58.420Z,21.11
2023-04-06T13:11:27.012Z,20.92
2023-04-06T13:13:55.619Z,21.10
2023-04-06T13:16:23.150Z,21.03
2023-04-06T13:18:50.264Z,21.28
2023-04-06T13:21:17.270Z,21.19
2023-04-06T13:23:44.547Z,21.37
2023-04-06T13:26:11.519Z,21.33
2023-04-06T13:28:38.391Z,21.29
2023-04-06T13:31:06.630Z,21.02
2023-04-06T13:33:33.664Z,20.90
2023-04-06T13:36:01.396Z,20.98
2023-04-06T13:38:28.678Z,20.86
2023-04-06T13:40:55.822Z,20.98
2023-04-06T13:43:22.727Z,21.41
2023-04-06T13:45:49.878Z,21.29
2023-04-06T13:48:16.970Z,21.02
2023-04-06T13:50:43.986Z,20.82
2023-04-06T13:53:11.937Z,20.90
2023-04-06T13:55:38.943Z,21.08
2023-04-06T13:58:05.510Z,20.91
2023-04-06T14:00:32.179Z,20.09
2023-04-06T14:02:58.829Z,20.56
2023-04-06T14:05:25.406Z,21.58
2023-04-06T14:07:51.961Z,20.72
2023-04-06T14:10:18.506Z,20.79
2023-04-06T14:12:45.118Z,21.57
2023-04-06T14:15:11.764Z,21.46
2023-04-06T14:17:38.387Z,21.52
2023-04-06T14:20:04.945Z,21.30
2023-04-06T14:22:31.540Z,21.51
2023-04-06T14:24:58.100Z,21.32
2023-04-06T14:27:24.676Z,20.79
2023-04-06T14:29:51.269Z,20.83
2023-04-06T14:32:17.834Z,20.78
2023-04-06T14:34:44.424Z,21.25
2023-04-06T14:37:11.032Z,21.66
2023-04-06T14:39:37.630Z,21.83
2023-04-06T14:42:04.179Z,21.30
2023-04-06T14:44:30.750Z,21.18
2023-04-06T14:46:57.744Z,21.41
2023-04-06T14:49:24.345Z,21.02
2023-04-06T14:51:50.906Z,21.88
2023-04-06T14:54:17.436Z,21.21
2023-04-06T14:56:44.046Z,21.12
2023-04-06T14:59:10.670Z,20.96
2023-04-06T15:01:37.327Z,20.87
2023-04-06T15:04:04.116Z,20.55
2023-04-06T15:06:30.828Z,20.50
2023-04-06T15:08:57.440Z,20.69
2023-04-06T15:11:24.007Z,21.31
2023-04-06T15:13:50.584Z,21.57
2023-04-06T15:16:17.211Z,21.25
2023-04-06T15:18:43.923Z,21.27
2023-04-06T15:21:11.581Z,21.54
2023-04-06T15:23:38.291Z,21.06
2023-04-06T15:26:04.844Z,20.61
2023-04-06T15:28:31.403Z,20.13
2023-04-06T15:30:58.055Z,21.86
2023-04-06T15:33:24.681Z,21.42
2023-04-06T15:35:51.278Z,22.09
2023-04-06T15:38:17.886Z,21.66
2023-04-06T15:40:44.440Z,21.43
2023-04-06T15:43:10.985Z,21.30
2023-04-06T15:45:37.568Z,20.97
2023-04-06T15:48:05.372Z,20.88
2023-04-06T15:50:33.580Z,21.23
2023-04-06T15:53:00.287Z,21.80
2023-04-06T15:55:26.842Z,21.60
2023-04-06T15:57:53.388Z,22.41
2023-04-06T16:00:19.959Z,22.30
2023-04-06T16:02:46.813Z,22.09
2023-04-06T16:05:13.479Z,21.42
2023-04-06T16:07:40.079Z,21.92
2023-04-06T16:10:06.660Z,21.64
2023-04-06T16:12:33.355Z,21.70
2023-04-06T16:14:59.924Z,21.76
2023-04-06T16:17:26.522Z,22.01
2023-04-06T16:19:53.093Z,21.98
2023-04-06T16:22:19.651Z,22.02
2023-04-06T16:24:46.222Z,22.80
2023-04-06T16:27:12.765Z,22.15
2023-04-06T16:29:39.395Z,22.44
2023-04-06T16:32:06.085Z,22.75
2023-04-06T16:34:32.873Z,22.56
2023-04-06T16:36:59.498Z,22.21
2023-04-06T16:39:26.159Z,22.88
2023-04-06T16:41:52.705Z,22.87
2023-04-06T16:44:20.311Z,23.21
2023-04-06T16:46:46.895Z,23.21
2023-04-06T16:49:13.451Z,23.71
2023-04-06T16:51:40.922Z,23.57
2023-04-06T16:54:07.656Z,23.39
2023-04-06T16:56:34.283Z,23.48
2023-04-06T16:59:00.868Z,23.60
2023-04-06T17:01:27.557Z,23.86
2023-04-06T17:03:54.348Z,24.02
2023-04-06T17:06:20.965Z,24.01
2023-04-06T17:08:47.705Z,24.38
2023-04-06T17:11:16.081Z,24.20
2023-04-06T17:13:44.571Z,24.41
2023-04-06T17:16:11.134Z,24.83
2023-04-06T17:18:37.977Z,24.45
2023-04-06T17:21:04.645Z,24.60
2023-04-06T17:23:31.230Z,24.89
2023-04-06T17:25:57.930Z,24.84
2023-04-06T17:28:24.543Z,24.92
2023-04-06T17:30:51.143Z,25.20
2023-04-06T17:33:17.725Z,25.19
2023-04-06T17:35:44.355Z,25.12
2023-04-06T17:38:10.901Z,25.41
2023-04-06T17:40:37.444Z,25.44
2023-04-06T17:43:04.098Z,25.55
2023-04-06T17:45:30.738Z,26.00
2023-04-06T17:47:58.363Z,26.13
2023-04-06T17:50:25.106Z,26.35
2023-04-06T17:52:51.697Z,26.42
2023-04-06T17:55:18.412Z,26.21
2023-04-06T17:57:45.112Z,26.62
2023-04-06T18:00:11.696Z,26.63
2023-04-06T18:02:38.538Z,26.96
2023-04-06T18:05:05.313Z,26.57
2023-04-06T18:07:31.924Z,26.87
2023-04-06T18:09:58.532Z,27.00
2023-04-06T18:12:25.081Z,26.97
2023-04-06T18:14:51.646Z,27.48
2023-04-06T18:17:18.280Z,27.66
2023-04-06T18:19:44.900Z,27.77
2023-04-06T18:22:11.434Z,27.49
2023-04-06T18:24:42.514Z,27.80
2023-04-06T18:27:09.727Z,27.89
2023-04-06T18:29:36.362Z,28.03
2023-04-06T18:32:02.947Z,28.46
2023-04-06T18:34:29.616Z,28.40
2023-04-06T18:36:56.305Z,28.85
2023-04-06T18:39:23.007Z,28.64
2023-04-06T18:41:49.585Z,29.06
2023-04-06T18:44:16.147Z,28.94
2023-04-06T18:46:42.732Z,29.26
2023-04-06T18:49:09.281Z,29.15
2023-04-06T18:51:35.896Z,29.09
2023-04-06T18:54:02.564Z,29.16
2023-04-06T18:56:29.113Z,30.66
2023-04-06T18:58:55.846Z,30.92
2023-04-06T19:01:22.538Z,30.66
2023-04-06T19:03:49.208Z,30.49
2023-04-06T19:06:15.910Z,30.49
2023-04-06T19:08:42.487Z,31.17
2023-04-06T19:11:09.082Z,30.87
2023-04-06T19:13:35.776Z,31.40
2023-04-06T19:16:02.376Z,32.01
2023-04-06T19:18:28.945Z,31.72
2023-04-06T19:20:55.469Z,32.49
2023-04-06T19:23:22.065Z,32.69
2023-04-06T19:25:48.678Z,32.55
2023-04-06T19:28:15.306Z,32.14
2023-04-06T19:30:41.874Z,32.72
2023-04-06T19:33:08.505Z,32.18
2023-04-06T19:35:35.070Z,32.41
2023-04-06T19:38:01.984Z,32.70
2023-04-06T19:40:28.606Z,32.45
2023-04-06T19:42:55.187Z,33.70
2023-04-06T19:45:21.753Z,33.72
2023-04-06T19:47:48.364Z,33.55
2023-04-06T19:50:14.925Z,33.64
2023-04-06T19:52:41.500Z,33.81
2023-04-06T19:55:08.056Z,34.18
2023-04-06T19:57:35.003Z,34.08
2023-04-06T20:00:01.601Z,35.00
2023-04-06T20:02:28.309Z,34.57
2023-04-06T20:04:55.824Z,34.93
2023-04-06T20:07:22.371Z,34.81
2023-04-06T20:09:48.942Z,35.27
2023-04-06T20:12:15.572Z,34.83
2023-04-06T20:14:42.162Z,35.13
2023-04-06T20:17:08.886Z,35.68
2023-04-06T20:19:36.331Z,35.38
2023-04-06T20:22:02.921Z,35.55
2023-04-06T20:24:29.456Z,35.31
2023-04-06T20:26:56.019Z,35.44
2023-04-06T20:29:22.579Z,36.36
2023-04-06T20:31:49.217Z,35.87
2023-04-06T20:34:16.233Z,37.02
2023-04-06T20:36:43.088Z,36.79
2023-04-06T20:39:09.648Z,36.76
2023-04-06T20:41:36.243Z,36.42
2023-04-06T20:44:02.765Z,36.92
2023-04-06T20:46:29.588Z,36.37
2023-04-06T20:48:56.209Z,36.31
2023-04-06T20:51:23.818Z,37.11
2023-04-06T20:53:50.404Z,37.81
2023-04-06T20:56:17.072Z,37.22
2023-04-06T20:58:43.636Z,37.15
2023-04-06T21:01:10.292Z,37.37
2023-04-06T21:03:36.947Z,38.30
2023-04-06T21:06:03.571Z,37.70
2023-04-06T21:08:30.130Z,37.80
2023-04-06T21:10:56.814Z,38.41
2023-04-06T21:13:23.398Z,38.55
2023-04-06T21:15:49.979Z,37.83
2023-04-06T21:18:16.592Z,38.41
2023-04-06T21:20:44.444Z,38.74
2023-04-06T21:23:11.100Z,38.47
2023-04-06T21:25:37.735Z,39.76
2023-04-06T21:28:04.289Z,39.81
2023-04-06T21:30:30.833Z,39.04
2023-04-06T21:32:57.430Z,39.37
2023-04-06T21:35:24.042Z,40.75
2023-04-06T21:37:50.628Z,41.33
2023-04-06T21:40:17.193Z,41.57
2023-04-06T21:42:43.752Z,40.85
2023-04-06T21:45:10.309Z,41.66
2023-04-06T21:47:36.915Z,41.16
2023-04-06T21:50:03.506Z,41.45
2023-04-06T21:52:30.083Z,41.74
2023-04-06T21:54:56.639Z,41.58
2023-04-06T21:57:23.238Z,42.24
2023-04-06T21:59:49.858Z,41.84
2023-04-06T22:02:16.516Z,42.16
2023-04-06T22:04:43.263Z,41.65
2023-04-06T22:07:09.913Z,41.78
2023-04-06T22:09:36.518Z,42.24
2023-04-06T22:12:03.087Z,41.84
2023-04-06T22:14:29.657Z,41.84
2023-04-06T22:16:56.237Z,42.76
2023-04-06T22:19:22.789Z,42.03
2023-04-06T22:21:49.358Z,42.41
2023-04-06T22:24:15.959Z,42.73
2023-04-06T22:26:42.610Z,42.78
2023-04-06T22:29:09.164Z,42.28
2023-04-06T22:31:35.773Z,41.96
2023-04-06T22:34:02.854Z,42.03
2023-04-06T22:36:29.438Z,42.64
2023-04-06T22:38:55.985Z,43.14
2023-04-06T22:41:22.589Z,43.54
2023-04-06T22:43:49.129Z,43.88
2023-04-06T22:46:15.891Z,43.33
2023-04-06T22:48:42.504Z,44.23
2023-04-06T22:51:09.120Z,44.34
2023-04-06T22:53:35.690Z,43.59
2023-04-06T22:56:02.229Z,43.22
2023-04-06T22:58:28.800Z,43.50
2023-04-06T23:00:55.391Z,43.04
2023-04-06T23:03:22.023Z,44.25
2023-04-06T23:05:48.632Z,43.21
2023-04-06T23:08:15.289Z,43.64
2023-04-06T23:10:44.133Z,44.49
2023-04-06T23:13:10.696Z,45.19
2023-04-06T23:15:37.250Z,44.32
2023-04-06T23:18:03.909Z,44.71
2023-04-06T23:20:30.589Z,44.77
2023-04-06T23:22:57.170Z,43.97
2023-04-06T23:25:23.785Z,45.17
2023-04-06T23:27:50.345Z,44.91
2023-04-06T23:30:16.941Z,44.67
2023-04-06T23:32:43.712Z,45.31
2023-04-06T23:35:10.622Z,43.95
2023-04-06T23:37:37.191Z,44.39
2023-04-06T23:40:03.790Z,44.16
2023-04-06T23:42:30.377Z,44.42
2023-04-06T23:44:59.209Z,45.35
2023-04-06T23:47:25.852Z,45.16
2023-04-06T23:49:52.477Z,44.49
2023-04-06T23:52:19.047Z,46.59
2023-04-06T23:54:45.747Z,47.39
2023-04-06T23:57:12.315Z,47.71
2023-04-06T23:59:38.850Z,47.22
